Time;durP1;ratioP1;P1;durP2;ratioP2;P2;SDS_P1;SDS_P2;PMS_P1;PMS_P2;Temp;Humidity;BMP_temperature;BMP_pressure;BME280_temperature;BME280_humidity;BME280_pressure;Samples;Min_cycle;Max_cycle;Signal;HPM_P1;HPM_P2
2023/10/03 00:02:17;;;;;;;;;12.33;12.33;;;;;;;;6489788;31;8921;-54
2023/10/03 00:08:20;;;;;;;;;10.33;10.33;;;;;;;;6489534;39;8852;-54
2023/10/03 00:14:22;;;;;;;;;15.33;15.33;;;;;;;;6489906;39;8906;-54
2023/10/03 00:20:27;;;;;;;;;14.67;14.33;;;;;;;;6489778;39;8876;-53
2023/10/03 00:26:31;;;;;;;;;12.33;10.00;;;;;;;;6489869;39;8890;-54
2023/10/03 00:32:34;;;;;;;;;14.00;13.00;;;;;;;;6490800;31;8883;-53
2023/10/03 00:38:36;;;;;;;;;11.33;9.67;;;;;;;;6488605;39;8936;-55
2023/10/03 00:44:40;;;;;;;;;10.00;10.00;;;;;;;;6489535;39;8946;-52
2023/10/03 00:50:44;;;;;;;;;12.00;11.67;;;;;;;;6489440;46;8859;-53
2023/10/03 00:56:47;;;;;;;;;13.33;13.33;;;;;;;;6490111;39;9027;-56
2023/10/03 01:02:51;;;;;;;;;12.00;10.67;;;;;;;;6489098;39;8895;-55
2023/10/03 01:08:54;;;;;;;;;11.00;11.00;;;;;;;;6489859;31;8958;-56
2023/10/03 01:14:59;;;;;;;;;11.33;11.33;;;;;;;;6490231;39;8998;-53
2023/10/03 01:21:06;;;;;;;;;15.67;12.33;;;;;;;;6488847;31;8891;-53
2023/10/03 01:27:09;;;;;;;;;12.00;10.67;;;;;;;;6489688;39;8863;-55
2023/10/03 01:33:12;;;;;;;;;14.00;14.00;;;;;;;;6488848;31;9044;-57
2023/10/03 01:39:15;;;;;;;;;15.33;14.33;;;;;;;;6488101;39;9576;-53
2023/10/03 01:45:23;;;;;;;;;14.67;13.33;;;;;;;;6488984;31;8991;-54
2023/10/03 01:51:26;;;;;;;;;16.00;14.00;;;;;;;;6488747;39;8954;-55
2023/10/03 01:57:32;;;;;;;;;17.67;15.33;;;;;;;;6486647;39;8982;-54
2023/10/03 02:03:35;;;;;;;;;13.67;13.33;;;;;;;;6488580;31;8919;-54
2023/10/03 02:09:39;;;;;;;;;18.00;16.33;;;;;;;;6488637;31;9028;-55
2023/10/03 02:15:45;;;;;;;;;15.33;15.00;;;;;;;;6487292;31;8978;-51
2023/10/03 02:21:50;;;;;;;;;13.67;13.00;;;;;;;;6488422;39;8909;-54
2023/10/03 02:27:56;;;;;;;;;16.33;14.67;;;;;;;;6487607;47;8899;-56
2023/10/03 02:34:02;;;;;;;;;17.00;15.00;;;;;;;;6488656;39;8907;-55
2023/10/03 02:40:07;;;;;;;;;18.33;15.00;;;;;;;;6486130;31;9013;-55
2023/10/03 02:46:12;;;;;;;;;15.75;14.25;;;;;;;;6489154;46;8987;-53
2023/10/03 02:52:25;;;;;;;;;19.75;18.75;;;;;;;;6534908;31;8941;-52
2023/10/03 02:58:30;;;;;;;;;15.50;15.00;;;;;;;;6489780;39;9562;-54
2023/10/03 03:04:34;;;;;;;;;19.33;17.67;;;;;;;;6489471;39;9096;-53
2023/10/03 03:10:42;;;;;;;;;20.00;18.67;;;;;;;;6489486;31;8902;-54
2023/10/03 03:16:47;;;;;;;;;20.00;15.67;;;;;;;;6488588;31;9467;-54
2023/10/03 03:22:53;;;;;;;;;20.33;19.00;;;;;;;;6488646;39;8936;-55
2023/10/03 03:28:57;;;;;;;;;20.33;18.33;;;;;;;;6489380;39;9461;-52
2023/10/03 03:35:01;;;;;;;;;25.67;22.67;;;;;;;;6489475;31;8836;-52
2023/10/03 03:41:08;;;;;;;;;23.75;21.75;;;;;;;;6487868;39;9634;-55
2023/10/03 03:47:11;;;;;;;;;19.75;19.00;;;;;;;;6490119;39;9613;-55
2023/10/03 03:53:15;;;;;;;;;21.50;21.25;;;;;;;;6487865;39;8883;-53
2023/10/03 03:59:19;;;;;;;;;24.75;21.00;;;;;;;;6488879;46;8892;-56
2023/10/03 04:05:29;;;;;;;;;22.25;20.75;;;;;;;;6470780;39;9120;-55
